sensor_id;sensor_type;location;lat;lon;timestamp;temperature;humidity
2945;DHT22;1482;51.398;7.128;2023-03-30T00:00:11;13.50;1.00
2945;DHT22;1482;51.398;7.128;2023-03-30T00:02:48;13.50;1.00
2945;DHT22;1482;51.398;7.128;2023-03-30T00:05:16;13.70;1.00
2945;DHT22;1482;51.398;7.128;2023-03-30T00:07:42;13.60;1.00
2945;DHT22;1482;51.398;7.128;2023-03-30T00:10:12;13.60;1.00
2945;DHT22;1482;51.398;7.128;2023-03-30T00:12:39;13.70;1.00
2945;DHT22;1482;51.398;7.128;2023-03-30T00:15:06;13.70;1.00
2945;DHT22;1482;51.398;7.128;2023-03-30T00:17:32;13.70;1.00
2945;DHT22;1482;51.398;7.128;2023-03-30T00:19:59;13.80;1.00
2945;DHT22;1482;51.398;7.128;2023-03-30T00:22:27;13.80;1.00
2945;DHT22;1482;51.398;7.128;2023-03-30T00:24:52;13.80;1.00
2945;DHT22;1482;51.398;7.128;2023-03-30T00:27:18;13.80;1.00
2945;DHT22;1482;51.398;7.128;2023-03-30T00:29:44;13.70;1.00
2945;DHT22;1482;51.398;7.128;2023-03-30T00:32:09;13.80;1.00
2945;DHT22;1482;51.398;7.128;2023-03-30T00:34:35;13.70;1.00
2945;DHT22;1482;51.398;7.128;2023-03-30T00:37:00;13.80;1.00
2945;DHT22;1482;51.398;7.128;2023-03-30T00:39:27;13.90;1.00
2945;DHT22;1482;51.398;7.128;2023-03-30T00:41:52;13.90;1.00
2945;DHT22;1482;51.398;7.128;2023-03-30T00:47:21;13.90;1.00
2945;DHT22;1482;51.398;7.128;2023-03-30T00:49:47;13.90;1.00
2945;DHT22;1482;51.398;7.128;2023-03-30T00:52:14;13.90;1.00
2945;DHT22;1482;51.398;7.128;2023-03-30T00:54:44;13.90;1.00
2945;DHT22;1482;51.398;7.128;2023-03-30T00:57:11;13.90;1.00
2945;DHT22;1482;51.398;7.128;2023-03-30T00:59:37;13.90;1.00
2945;DHT22;1482;51.398;7.128;2023-03-30T01:02:03;13.80;1.00
2945;DHT22;1482;51.398;7.128;2023-03-30T01:04:29;13.80;1.00
2945;DHT22;1482;51.398;7.128;2023-03-30T01:06:55;13.70;1.00
2945;DHT22;1482;51.398;7.128;2023-03-30T01:09:22;13.80;1.00
2945;DHT22;1482;51.398;7.128;2023-03-30T01:11:49;13.80;1.00
2945;DHT22;1482;51.398;7.128;2023-03-30T01:14:15;13.80;1.00
2945;DHT22;1482;51.398;7.128;2023-03-30T01:22:08;13.80;1.00
2945;DHT22;1482;51.398;7.128;2023-03-30T01:44:31;14.60;1.00
2945;DHT22;1482;51.398;7.128;2023-03-30T01:47:05;14.60;1.00
2945;DHT22;1482;51.398;7.128;2023-03-30T01:49:42;14.80;1.00
2945;DHT22;1482;51.398;7.128;2023-03-30T01:52:22;14.80;1.00
2945;DHT22;1482;51.398;7.128;2023-03-30T01:55:18;14.90;1.00
2945;DHT22;1482;51.398;7.128;2023-03-30T01:57:52;15.00;1.00
2945;DHT22;1482;51.398;7.128;2023-03-30T02:00:21;15.00;1.00
2945;DHT22;1482;51.398;7.128;2023-03-30T02:02:52;15.00;1.00
2945;DHT22;1482;51.398;7.128;2023-03-30T02:05:19;14.90;1.00
2945;DHT22;1482;51.398;7.128;2023-03-30T02:08:14;15.00;1.00
2945;DHT22;1482;51.398;7.128;2023-03-30T02:10:42;15.00;1.00
2945;DHT22;1482;51.398;7.128;2023-03-30T02:13:09;15.00;1.00
2945;DHT22;1482;51.398;7.128;2023-03-30T02:15:39;15.00;1.00
2945;DHT22;1482;51.398;7.128;2023-03-30T02:18:06;15.10;1.00
2945;DHT22;1482;51.398;7.128;2023-03-30T02:20:32;15.10;1.00
2945;DHT22;1482;51.398;7.128;2023-03-30T02:22:59;15.20;1.00
2945;DHT22;1482;51.398;7.128;2023-03-30T02:25:26;15.10;1.00
2945;DHT22;1482;51.398;7.128;2023-03-30T02:27:52;15.10;1.00
2945;DHT22;1482;51.398;7.128;2023-03-30T02:30:17;15.20;1.00
2945;DHT22;1482;51.398;7.128;2023-03-30T02:32:46;15.20;1.00
2945;DHT22;1482;51.398;7.128;2023-03-30T02:35:36;15.20;1.00
2945;DHT22;1482;51.398;7.128;2023-03-30T02:38:24;15.20;1.00
2945;DHT22;1482;51.398;7.128;2023-03-30T02:41:52;15.10;1.00
2945;DHT22;1482;51.398;7.128;2023-03-30T02:47:06;15.00;1.00
2945;DHT22;1482;51.398;7.128;2023-03-30T02:52:22;14.90;1.00
2945;DHT22;1482;51.398;7.128;2023-03-30T02:57:35;14.90;1.00
2945;DHT22;1482;51.398;7.128;2023-03-30T03:00:12;14.90;1.00
2945;DHT22;1482;51.398;7.128;2023-03-30T03:02:42;14.80;1.00
2945;DHT22;1482;51.398;7.128;2023-03-30T03:05:10;14.80;1.00
2945;DHT22;1482;51.398;7.128;2023-03-30T03:07:37;14.80;1.00
2945;DHT22;1482;51.398;7.128;2023-03-30T03:10:04;14.80;1.00
2945;DHT22;1482;51.398;7.128;2023-03-30T03:12:31;14.90;1.00
2945;DHT22;1482;51.398;7.128;2023-03-30T03:14:57;14.90;1.00
2945;DHT22;1482;51.398;7.128;2023-03-30T03:17:22;14.90;1.00
2945;DHT22;1482;51.398;7.128;2023-03-30T03:19:49;14.90;1.00
2945;DHT22;1482;51.398;7.128;2023-03-30T03:22:15;14.90;1.00
2945;DHT22;1482;51.398;7.128;2023-03-30T03:24:41;14.90;1.00
2945;DHT22;1482;51.398;7.128;2023-03-30T03:27:06;14.90;1.00
2945;DHT22;1482;51.398;7.128;2023-03-30T03:29:33;15.00;1.00
2945;DHT22;1482;51.398;7.128;2023-03-30T03:31:58;15.20;1.00
2945;DHT22;1482;51.398;7.128;2023-03-30T03:34:24;15.20;1.00
2945;DHT22;1482;51.398;7.128;2023-03-30T03:36:51;15.20;1.00
2945;DHT22;1482;51.398;7.128;2023-03-30T03:39:17;15.30;1.00
2945;DHT22;1482;51.398;7.128;2023-03-30T03:41:43;15.20;1.00
2945;DHT22;1482;51.398;7.128;2023-03-30T03:44:09;15.20;1.00
2945;DHT22;1482;51.398;7.128;2023-03-30T03:46:34;15.10;1.00
2945;DHT22;1482;51.398;7.128;2023-03-30T03:49:00;15.20;1.00
2945;DHT22;1482;51.398;7.128;2023-03-30T03:51:25;15.20;1.00
2945;DHT22;1482;51.398;7.128;2023-03-30T03:53:53;15.30;1.00
2945;DHT22;1482;51.398;7.128;2023-03-30T03:56:19;15.40;1.00
2945;DHT22;1482;51.398;7.128;2023-03-30T03:58:44;15.30;1.00
2945;DHT22;1482;51.398;7.128;2023-03-30T04:01:10;15.30;1.00
2945;DHT22;1482;51.398;7.128;2023-03-30T04:03:39;15.20;1.00
2945;DHT22;1482;51.398;7.128;2023-03-30T04:06:06;15.10;1.00
2945;DHT22;1482;51.398;7.128;2023-03-30T04:08:31;15.20;1.00
2945;DHT22;1482;51.398;7.128;2023-03-30T04:11:08;15.30;1.00
2945;DHT22;1482;51.398;7.128;2023-03-30T04:13:36;15.30;1.00
2945;DHT22;1482;51.398;7.128;2023-03-30T04:16:02;15.30;1.00
2945;DHT22;1482;51.398;7.128;2023-03-30T04:18:29;15.30;1.00
2945;DHT22;1482;51.398;7.128;2023-03-30T04:20:59;15.40;1.00
2945;DHT22;1482;51.398;7.128;2023-03-30T04:23:27;15.40;1.00
2945;DHT22;1482;51.398;7.128;2023-03-30T04:25:56;15.50;1.00
2945;DHT22;1482;51.398;7.128;2023-03-30T04:28:23;15.50;1.00
2945;DHT22;1482;51.398;7.128;2023-03-30T04:30:49;15.50;1.00
2945;DHT22;1482;51.398;7.128;2023-03-30T04:33:15;15.30;1.00
2945;DHT22;1482;51.398;7.128;2023-03-30T04:35:40;15.30;1.00
2945;DHT22;1482;51.398;7.128;2023-03-30T04:38:06;15.20;1.00
2945;DHT22;1482;51.398;7.128;2023-03-30T04:40:32;15.20;1.00
2945;DHT22;1482;51.398;7.128;2023-03-30T04:42:58;15.10;1.00
2945;DHT22;1482;51.398;7.128;2023-03-30T04:45:27;15.10;1.00
2945;DHT22;1482;51.398;7.128;2023-03-30T04:47:53;15.10;1.00
2945;DHT22;1482;51.398;7.128;2023-03-30T04:50:18;15.10;1.00
2945;DHT22;1482;51.398;7.128;2023-03-30T04:52:45;15.20;1.00
2945;DHT22;1482;51.398;7.128;2023-03-30T04:55:10;15.00;1.00
2945;DHT22;1482;51.398;7.128;2023-03-30T04:57:36;15.00;1.00
2945;DHT22;1482;51.398;7.128;2023-03-30T05:00:04;15.10;1.00
2945;DHT22;1482;51.398;7.128;2023-03-30T05:02:32;15.10;1.00
2945;DHT22;1482;51.398;7.128;2023-03-30T05:04:57;15.10;1.00
2945;DHT22;1482;51.398;7.128;2023-03-30T05:07:23;15.10;1.00
2945;DHT22;1482;51.398;7.128;2023-03-30T05:09:48;15.20;1.00
2945;DHT22;1482;51.398;7.128;2023-03-30T05:12:14;15.30;1.00
2945;DHT22;1482;51.398;7.128;2023-03-30T05:14:41;15.50;1.00
2945;DHT22;1482;51.398;7.128;2023-03-30T05:17:07;15.40;1.00
2945;DHT22;1482;51.398;7.128;2023-03-30T05:19:33;15.30;1.00
2945;DHT22;1482;51.398;7.128;2023-03-30T05:21:58;15.40;1.00
2945;DHT22;1482;51.398;7.128;2023-03-30T05:24:25;15.50;1.00
2945;DHT22;1482;51.398;7.128;2023-03-30T05:26:51;15.60;1.00
2945;DHT22;1482;51.398;7.128;2023-03-30T05:29:17;15.60;1.00
2945;DHT22;1482;51.398;7.128;2023-03-30T05:31:42;15.70;1.00
2945;DHT22;1482;51.398;7.128;2023-03-30T05:34:08;15.70;1.00
2945;DHT22;1482;51.398;7.128;2023-03-30T05:36:34;15.50;1.00
2945;DHT22;1482;51.398;7.128;2023-03-30T05:39:00;15.50;1.00
2945;DHT22;1482;51.398;7.128;2023-03-30T05:41:29;15.60;1.00
2945;DHT22;1482;51.398;7.128;2023-03-30T05:43:55;15.60;1.00
2945;DHT22;1482;51.398;7.128;2023-03-30T05:46:20;15.60;1.00
2945;DHT22;1482;51.398;7.128;2023-03-30T05:48:47;15.50;1.00
2945;DHT22;1482;51.398;7.128;2023-03-30T05:51:12;15.30;1.00
2945;DHT22;1482;51.398;7.128;2023-03-30T05:53:38;15.30;1.00
2945;DHT22;1482;51.398;7.128;2023-03-30T05:56:03;15.20;1.00
2945;DHT22;1482;51.398;7.128;2023-03-30T05:58:29;15.30;1.00
2945;DHT22;1482;51.398;7.128;2023-03-30T06:00:58;15.20;1.00
2945;DHT22;1482;51.398;7.128;2023-03-30T06:03:24;15.10;1.00
2945;DHT22;1482;51.398;7.128;2023-03-30T06:05:52;15.10;1.00
2945;DHT22;1482;51.398;7.128;2023-03-30T06:08:18;15.00;1.00
2945;DHT22;1482;51.398;7.128;2023-03-30T06:10:51;14.90;1.00
2945;DHT22;1482;51.398;7.128;2023-03-30T06:13:17;14.90;1.00
2945;DHT22;1482;51.398;7.128;2023-03-30T06:15:44;14.90;1.00
2945;DHT22;1482;51.398;7.128;2023-03-30T06:18:09;14.80;1.00
2945;DHT22;1482;51.398;7.128;2023-03-30T06:20:35;14.60;1.00
2945;DHT22;1482;51.398;7.128;2023-03-30T06:23:00;14.70;1.00
2945;DHT22;1482;51.398;7.128;2023-03-30T06:25:26;14.70;1.00
2945;DHT22;1482;51.398;7.128;2023-03-30T06:27:54;14.80;1.00
2945;DHT22;1482;51.398;7.128;2023-03-30T06:30:20;14.90;1.00
2945;DHT22;1482;51.398;7.128;2023-03-30T06:32:46;15.10;1.00
2945;DHT22;1482;51.398;7.128;2023-03-30T06:35:11;15.10;1.00
2945;DHT22;1482;51.398;7.128;2023-03-30T06:37:40;15.30;1.00
2945;DHT22;1482;51.398;7.128;2023-03-30T06:40:07;15.40;1.00
2945;DHT22;1482;51.398;7.128;2023-03-30T06:42:40;15.60;1.00
2945;DHT22;1482;51.398;7.128;2023-03-30T06:45:06;15.80;1.00
2945;DHT22;1482;51.398;7.128;2023-03-30T06:47:32;16.00;1.00
2945;DHT22;1482;51.398;7.128;2023-03-30T06:49:58;16.40;1.00
2945;DHT22;1482;51.398;7.128;2023-03-30T06:52:23;17.40;1.00
2945;DHT22;1482;51.398;7.128;2023-03-30T06:54:49;19.30;1.00
2945;DHT22;1482;51.398;7.128;2023-03-30T06:57:14;22.20;1.00
2945;DHT22;1482;51.398;7.128;2023-03-30T06:59:40;23.90;1.00
2945;DHT22;1482;51.398;7.128;2023-03-30T07:02:06;24.70;1.00
2945;DHT22;1482;51.398;7.128;2023-03-30T07:04:31;23.90;1.00
2945;DHT22;1482;51.398;7.128;2023-03-30T07:06:57;22.90;1.00
2945;DHT22;1482;51.398;7.128;2023-03-30T07:09:24;21.20;1.00
2945;DHT22;1482;51.398;7.128;2023-03-30T07:11:50;20.20;1.00
2945;DHT22;1482;51.398;7.128;2023-03-30T07:14:16;19.50;1.00
2945;DHT22;1482;51.398;7.128;2023-03-30T07:16:42;18.90;1.00
2945;DHT22;1482;51.398;7.128;2023-03-30T07:19:08;18.50;1.00
2945;DHT22;1482;51.398;7.128;2023-03-30T07:21:33;18.20;1.00
2945;DHT22;1482;51.398;7.128;2023-03-30T07:23:59;18.00;1.00
2945;DHT22;1482;51.398;7.128;2023-03-30T07:26:28;17.50;1.00
2945;DHT22;1482;51.398;7.128;2023-03-30T07:28:54;16.90;1.00
2945;DHT22;1482;51.398;7.128;2023-03-30T07:31:21;16.90;1.00
2945;DHT22;1482;51.398;7.128;2023-03-30T07:33:47;16.80;1.00
2945;DHT22;1482;51.398;7.128;2023-03-30T07:36:13;16.70;1.00
2945;DHT22;1482;51.398;7.128;2023-03-30T07:38:40;16.50;1.00
2945;DHT22;1482;51.398;7.128;2023-03-30T07:41:11;16.30;1.00
2945;DHT22;1482;51.398;7.128;2023-03-30T07:43:37;16.20;1.00
2945;DHT22;1482;51.398;7.128;2023-03-30T07:46:08;15.80;1.00
2945;DHT22;1482;51.398;7.128;2023-03-30T07:48:36;15.60;1.00
2945;DHT22;1482;51.398;7.128;2023-03-30T07:51:04;15.50;1.00
2945;DHT22;1482;51.398;7.128;2023-03-30T07:53:29;15.40;1.00
2945;DHT22;1482;51.398;7.128;2023-03-30T07:55:55;15.30;1.00
2945;DHT22;1482;51.398;7.128;2023-03-30T07:58:21;15.20;1.00
2945;DHT22;1482;51.398;7.128;2023-03-30T08:00:47;15.20;1.00
2945;DHT22;1482;51.398;7.128;2023-03-30T08:03:13;15.30;1.00
2945;DHT22;1482;51.398;7.128;2023-03-30T08:05:38;15.50;1.00
2945;DHT22;1482;51.398;7.128;2023-03-30T08:08:04;15.70;1.00
2945;DHT22;1482;51.398;7.128;2023-03-30T08:10:30;15.80;1.00
2945;DHT22;1482;51.398;7.128;2023-03-30T08:12:55;15.70;1.00
2945;DHT22;1482;51.398;7.128;2023-03-30T08:15:21;15.90;1.00
2945;DHT22;1482;51.398;7.128;2023-03-30T08:17:46;15.80;1.00
2945;DHT22;1482;51.398;7.128;2023-03-30T08:20:12;15.90;1.00
2945;DHT22;1482;51.398;7.128;2023-03-30T08:22:37;15.90;1.00
2945;DHT22;1482;51.398;7.128;2023-03-30T08:25:04;15.90;1.00
2945;DHT22;1482;51.398;7.128;2023-03-30T08:27:29;15.90;1.00
2945;DHT22;1482;51.398;7.128;2023-03-30T08:29:55;15.90;1.00
2945;DHT22;1482;51.398;7.128;2023-03-30T08:32:21;15.80;1.00
2945;DHT22;1482;51.398;7.128;2023-03-30T08:34:47;15.80;1.00
2945;DHT22;1482;51.398;7.128;2023-03-30T08:37:13;15.70;1.00
2945;DHT22;1482;51.398;7.128;2023-03-30T08:39:38;15.70;1.00
2945;DHT22;1482;51.398;7.128;2023-03-30T08:42:10;15.80;1.00
2945;DHT22;1482;51.398;7.128;2023-03-30T08:44:41;15.70;1.00
2945;DHT22;1482;51.398;7.128;2023-03-30T08:47:14;15.70;1.00
2945;DHT22;1482;51.398;7.128;2023-03-30T08:49:45;15.80;1.00
2945;DHT22;1482;51.398;7.128;2023-03-30T08:52:22;16.00;1.00
2945;DHT22;1482;51.398;7.128;2023-03-30T08:54:48;16.30;1.00
2945;DHT22;1482;51.398;7.128;2023-03-30T08:57:40;16.50;1.00
2945;DHT22;1482;51.398;7.128;2023-03-30T09:02:41;17.00;1.00
2945;DHT22;1482;51.398;7.128;2023-03-30T09:07:56;18.50;1.00
2945;DHT22;1482;51.398;7.128;2023-03-30T09:10:25;19.00;1.00
2945;DHT22;1482;51.398;7.128;2023-03-30T09:12:58;19.80;1.00
2945;DHT22;1482;51.398;7.128;2023-03-30T09:15:40;20.40;1.00
2945;DHT22;1482;51.398;7.128;2023-03-30T09:18:27;20.90;1.00
2945;DHT22;1482;51.398;7.128;2023-03-30T09:21:00;21.00;1.00
2945;DHT22;1482;51.398;7.128;2023-03-30T09:23:28;21.00;1.00
2945;DHT22;1482;51.398;7.128;2023-03-30T09:26:49;21.00;1.00
2945;DHT22;1482;51.398;7.128;2023-03-30T09:29:10;21.00;1.00
2945;DHT22;1482;51.398;7.128;2023-03-30T09:31:43;20.20;1.00
2945;DHT22;1482;51.398;7.128;2023-03-30T09:36:49;19.90;1.00
2945;DHT22;1482;51.398;7.128;2023-03-30T09:39:22;19.70;1.00
2945;DHT22;1482;51.398;7.128;2023-03-30T09:44:39;19.90;1.00
2945;DHT22;1482;51.398;7.128;2023-03-30T09:47:22;19.70;1.00
2945;DHT22;1482;51.398;7.128;2023-03-30T09:49:57;19.40;1.00
2945;DHT22;1482;51.398;7.128;2023-03-30T09:52:26;18.50;1.00
2945;DHT22;1482;51.398;7.128;2023-03-30T09:54:51;17.40;1.00
2945;DHT22;1482;51.398;7.128;2023-03-30T09:59:51;15.70;1.00
2945;DHT22;1482;51.398;7.128;2023-03-30T10:02:21;15.20;1.00
2945;DHT22;1482;51.398;7.128;2023-03-30T10:05:13;14.80;1.00
2945;DHT22;1482;51.398;7.128;2023-03-30T10:07:41;14.40;1.00
2945;DHT22;1482;51.398;7.128;2023-03-30T10:12:41;13.80;53.10
2945;DHT22;1482;51.398;7.128;2023-03-30T10:15:15;13.50;68.20
2945;DHT22;1482;51.398;7.128;2023-03-30T10:17:41;13.60;83.20
2945;DHT22;1482;51.398;7.128;2023-03-30T10:20:15;13.70;73.80
2945;DHT22;1482;51.398;7.128;2023-03-30T10:22:53;13.50;73.90
2945;DHT22;1482;51.398;7.128;2023-03-30T10:25:26;13.40;84.40
2945;DHT22;1482;51.398;7.128;2023-03-30T10:27:55;13.40;90.80
2945;DHT22;1482;51.398;7.128;2023-03-30T10:30:24;13.50;96.80
2945;DHT22;1482;51.398;7.128;2023-03-30T10:32:52;13.50;95.10
2945;DHT22;1482;51.398;7.128;2023-03-30T10:35:22;13.40;99.00
2945;DHT22;1482;51.398;7.128;2023-03-30T10:37:51;13.50;99.50
2945;DHT22;1482;51.398;7.128;2023-03-30T10:40:20;13.50;95.70
2945;DHT22;1482;51.398;7.128;2023-03-30T10:42:52;13.60;96.90
2945;DHT22;1482;51.398;7.128;2023-03-30T10:45:25;13.70;93.60
2945;DHT22;1482;51.398;7.128;2023-03-30T10:53:32;14.00;57.90
2945;DHT22;1482;51.398;7.128;2023-03-30T11:03:57;15.70;16.40
2945;DHT22;1482;51.398;7.128;2023-03-30T11:06:33;16.20;1.00
2945;DHT22;1482;51.398;7.128;2023-03-30T11:09:02;16.70;1.00
2945;DHT22;1482;51.398;7.128;2023-03-30T11:11:41;17.20;1.00
2945;DHT22;1482;51.398;7.128;2023-03-30T11:14:14;17.50;1.00
2945;DHT22;1482;51.398;7.128;2023-03-30T11:17:09;17.40;1.00
2945;DHT22;1482;51.398;7.128;2023-03-30T11:19:56;17.60;1.00
2945;DHT22;1482;51.398;7.128;2023-03-30T11:22:40;17.40;1.00
2945;DHT22;1482;51.398;7.128;2023-03-30T11:25:47;17.70;1.00
2945;DHT22;1482;51.398;7.128;2023-03-30T11:28:16;18.10;1.00
2945;DHT22;1482;51.398;7.128;2023-03-30T11:30:43;18.00;1.00
2945;DHT22;1482;51.398;7.128;2023-03-30T11:36:01;18.20;1.00
2945;DHT22;1482;51.398;7.128;2023-03-30T11:43:56;18.80;1.00
2945;DHT22;1482;51.398;7.128;2023-03-30T11:46:39;18.90;1.00
2945;DHT22;1482;51.398;7.128;2023-03-30T11:52:07;18.80;1.00
2945;DHT22;1482;51.398;7.128;2023-03-30T11:57:27;18.90;1.00
2945;DHT22;1482;51.398;7.128;2023-03-30T12:05:59;18.20;1.00
2945;DHT22;1482;51.398;7.128;2023-03-30T12:13:38;18.20;1.00
2945;DHT22;1482;51.398;7.128;2023-03-30T12:16:07;18.00;1.00
2945;DHT22;1482;51.398;7.128;2023-03-30T12:19:12;17.90;1.00
2945;DHT22;1482;51.398;7.128;2023-03-30T12:22:15;17.60;1.00
2945;DHT22;1482;51.398;7.128;2023-03-30T12:30:40;17.00;1.00
2945;DHT22;1482;51.398;7.128;2023-03-30T12:33:19;16.90;1.00
2945;DHT22;1482;51.398;7.128;2023-03-30T12:38:20;15.90;1.00
2945;DHT22;1482;51.398;7.128;2023-03-30T12:55:37;14.00;99.90
2945;DHT22;1482;51.398;7.128;2023-03-30T13:06:03;13.30;99.90
2945;DHT22;1482;51.398;7.128;2023-03-30T13:08:36;13.50;99.90
2945;DHT22;1482;51.398;7.128;2023-03-30T13:11:07;13.50;99.90
2945;DHT22;1482;51.398;7.128;2023-03-30T13:13:50;13.50;99.90
2945;DHT22;1482;51.398;7.128;2023-03-30T13:19:27;13.50;99.90
2945;DHT22;1482;51.398;7.128;2023-03-30T13:24:53;13.50;99.90
2945;DHT22;1482;51.398;7.128;2023-03-30T13:27:21;13.50;99.90
2945;DHT22;1482;51.398;7.128;2023-03-30T13:41:16;15.70;99.90
2945;DHT22;1482;51.398;7.128;2023-03-30T13:46:50;15.60;99.90
2945;DHT22;1482;51.398;7.128;2023-03-30T13:52:15;15.80;99.90
2945;DHT22;1482;51.398;7.128;2023-03-30T13:54:42;15.90;99.90
2945;DHT22;1482;51.398;7.128;2023-03-30T13:57:16;16.00;73.30
2945;DHT22;1482;51.398;7.128;2023-03-30T13:59:49;16.00;49.30
2945;DHT22;1482;51.398;7.128;2023-03-30T14:02:16;16.10;80.60
2945;DHT22;1482;51.398;7.128;2023-03-30T14:04:43;16.10;56.70
2945;DHT22;1482;51.398;7.128;2023-03-30T14:07:20;16.20;59.40
2945;DHT22;1482;51.398;7.128;2023-03-30T14:10:10;16.30;41.50
2945;DHT22;1482;51.398;7.128;2023-03-30T14:12:38;16.50;21.60
2945;DHT22;1482;51.398;7.128;2023-03-30T14:15:34;16.50;8.70
2945;DHT22;1482;51.398;7.128;2023-03-30T14:18:02;16.70;9.60
2945;DHT22;1482;51.398;7.128;2023-03-30T14:23:05;16.40;1.00
2945;DHT22;1482;51.398;7.128;2023-03-30T14:25:34;16.30;1.00
2945;DHT22;1482;51.398;7.128;2023-03-30T14:28:11;16.50;1.00
2945;DHT22;1482;51.398;7.128;2023-03-30T14:30:37;16.60;1.00
2945;DHT22;1482;51.398;7.128;2023-03-30T14:33:11;16.60;1.00
2945;DHT22;1482;51.398;7.128;2023-03-30T14:35:41;16.50;1.00
2945;DHT22;1482;51.398;7.128;2023-03-30T14:38:14;16.50;1.00
2945;DHT22;1482;51.398;7.128;2023-03-30T14:40:41;16.60;1.00
2945;DHT22;1482;51.398;7.128;2023-03-30T14:43:21;16.60;1.00
2945;DHT22;1482;51.398;7.128;2023-03-30T14:45:49;16.80;1.00
2945;DHT22;1482;51.398;7.128;2023-03-30T14:48:21;16.80;1.00
2945;DHT22;1482;51.398;7.128;2023-03-30T14:50:48;16.70;1.00
2945;DHT22;1482;51.398;7.128;2023-03-30T14:53:24;16.70;1.00
2945;DHT22;1482;51.398;7.128;2023-03-30T14:55:51;16.60;1.00
2945;DHT22;1482;51.398;7.128;2023-03-30T14:58:22;16.60;1.00
2945;DHT22;1482;51.398;7.128;2023-03-30T15:00:52;16.40;1.00
2945;DHT22;1482;51.398;7.128;2023-03-30T15:03:19;16.40;1.00
2945;DHT22;1482;51.398;7.128;2023-03-30T15:05:46;16.20;1.00
2945;DHT22;1482;51.398;7.128;2023-03-30T15:08:18;16.00;1.00
2945;DHT22;1482;51.398;7.128;2023-03-30T15:10:52;15.80;1.00
2945;DHT22;1482;51.398;7.128;2023-03-30T15:13:37;15.70;1.00
2945;DHT22;1482;51.398;7.128;2023-03-30T15:16:05;15.90;1.00
2945;DHT22;1482;51.398;7.128;2023-03-30T15:18:33;16.10;1.00
2945;DHT22;1482;51.398;7.128;2023-03-30T15:21:00;16.10;1.00
2945;DHT22;1482;51.398;7.128;2023-03-30T15:23:33;16.30;1.00
2945;DHT22;1482;51.398;7.128;2023-03-30T15:26:00;16.20;1.00
2945;DHT22;1482;51.398;7.128;2023-03-30T15:28:31;16.40;1.00
2945;DHT22;1482;51.398;7.128;2023-03-30T15:30:59;16.20;1.00
2945;DHT22;1482;51.398;7.128;2023-03-30T15:33:33;16.20;1.00
2945;DHT22;1482;51.398;7.128;2023-03-30T15:36:33;16.10;1.00
2945;DHT22;1482;51.398;7.128;2023-03-30T15:38:52;16.10;1.00
2945;DHT22;1482;51.398;7.128;2023-03-30T15:41:23;16.00;1.00
2945;DHT22;1482;51.398;7.128;2023-03-30T15:44:11;15.70;1.00
2945;DHT22;1482;51.398;7.128;2023-03-30T15:46:41;15.80;1.00
2945;DHT22;1482;51.398;7.128;2023-03-30T15:49:17;15.50;1.00
2945;DHT22;1482;51.398;7.128;2023-03-30T15:51:46;15.40;17.80
2945;DHT22;1482;51.398;7.128;2023-03-30T15:54:15;15.20;50.60
2945;DHT22;1482;51.398;7.128;2023-03-30T15:56:48;14.80;78.80
2945;DHT22;1482;51.398;7.128;2023-03-30T15:59:20;14.80;99.90
2945;DHT22;1482;51.398;7.128;2023-03-30T16:01:54;14.90;99.90
2945;DHT22;1482;51.398;7.128;2023-03-30T16:04:22;15.00;99.90
2945;DHT22;1482;51.398;7.128;2023-03-30T16:06:48;15.30;99.90
2945;DHT22;1482;51.398;7.128;2023-03-30T16:09:15;15.20;99.90
2945;DHT22;1482;51.398;7.128;2023-03-30T16:11:41;15.00;99.90
2945;DHT22;1482;51.398;7.128;2023-03-30T16:14:11;15.00;99.90
2945;DHT22;1482;51.398;7.128;2023-03-30T16:16:37;14.90;99.90
2945;DHT22;1482;51.398;7.128;2023-03-30T16:19:03;15.00;99.90
2945;DHT22;1482;51.398;7.128;2023-03-30T16:21:28;15.10;99.90
2945;DHT22;1482;51.398;7.128;2023-03-30T16:23:54;15.10;99.90
2945;DHT22;1482;51.398;7.128;2023-03-30T16:26:19;14.90;99.90
2945;DHT22;1482;51.398;7.128;2023-03-30T16:28:45;14.90;99.90
2945;DHT22;1482;51.398;7.128;2023-03-30T16:31:21;14.70;99.90
2945;DHT22;1482;51.398;7.128;2023-03-30T16:33:47;14.80;99.90
2945;DHT22;1482;51.398;7.128;2023-03-30T16:36:17;14.60;99.90
2945;DHT22;1482;51.398;7.128;2023-03-30T16:38:44;14.30;99.90
2945;DHT22;1482;51.398;7.128;2023-03-30T16:41:13;14.30;99.90
2945;DHT22;1482;51.398;7.128;2023-03-30T16:43:39;14.40;99.90
2945;DHT22;1482;51.398;7.128;2023-03-30T16:46:05;14.50;99.90
2945;DHT22;1482;51.398;7.128;2023-03-30T16:48:31;14.60;99.90
2945;DHT22;1482;51.398;7.128;2023-03-30T16:50:57;14.60;99.90
2945;DHT22;1482;51.398;7.128;2023-03-30T16:53:23;14.50;99.90
2945;DHT22;1482;51.398;7.128;2023-03-30T16:55:48;14.30;99.90
2945;DHT22;1482;51.398;7.128;2023-03-30T16:58:14;14.30;99.90
2945;DHT22;1482;51.398;7.128;2023-03-30T17:00:46;14.20;99.90
2945;DHT22;1482;51.398;7.128;2023-03-30T17:03:12;14.00;99.90
2945;DHT22;1482;51.398;7.128;2023-03-30T17:05:38;13.90;99.90
2945;DHT22;1482;51.398;7.128;2023-03-30T17:08:06;13.80;99.90
2945;DHT22;1482;51.398;7.128;2023-03-30T17:10:35;13.80;99.90
2945;DHT22;1482;51.398;7.128;2023-03-30T17:13:01;13.80;99.90
2945;DHT22;1482;51.398;7.128;2023-03-30T17:15:26;13.70;99.90
2945;DHT22;1482;51.398;7.128;2023-03-30T17:17:53;13.80;99.90
2945;DHT22;1482;51.398;7.128;2023-03-30T17:22:48;13.70;94.10
2945;DHT22;1482;51.398;7.128;2023-03-30T17:25:14;13.60;99.90
2945;DHT22;1482;51.398;7.128;2023-03-30T17:27:40;13.60;99.90
2945;DHT22;1482;51.398;7.128;2023-03-30T17:30:21;13.50;99.90
2945;DHT22;1482;51.398;7.128;2023-03-30T17:32:47;13.40;99.90
2945;DHT22;1482;51.398;7.128;2023-03-30T17:35:14;13.40;99.90
2945;DHT22;1482;51.398;7.128;2023-03-30T17:37:39;13.30;99.90
2945;DHT22;1482;51.398;7.128;2023-03-30T17:40:23;13.30;99.90
2945;DHT22;1482;51.398;7.128;2023-03-30T17:42:49;13.30;99.90
2945;DHT22;1482;51.398;7.128;2023-03-30T17:45:20;13.10;99.90
2945;DHT22;1482;51.398;7.128;2023-03-30T17:47:46;13.10;99.90
2945;DHT22;1482;51.398;7.128;2023-03-30T17:50:24;13.20;99.90
2945;DHT22;1482;51.398;7.128;2023-03-30T17:52:51;13.10;99.90
2945;DHT22;1482;51.398;7.128;2023-03-30T17:55:21;13.10;99.90
2945;DHT22;1482;51.398;7.128;2023-03-30T17:57:47;13.10;99.90
2945;DHT22;1482;51.398;7.128;2023-03-30T18:00:24;13.00;99.90
2945;DHT22;1482;51.398;7.128;2023-03-30T18:02:51;12.90;99.90
2945;DHT22;1482;51.398;7.128;2023-03-30T18:05:18;12.90;99.90
2945;DHT22;1482;51.398;7.128;2023-03-30T18:07:45;12.90;99.90
2945;DHT22;1482;51.398;7.128;2023-03-30T18:10:37;12.70;99.90
2945;DHT22;1482;51.398;7.128;2023-03-30T18:13:04;12.60;99.90
2945;DHT22;1482;51.398;7.128;2023-03-30T18:15:30;12.60;99.90
2945;DHT22;1482;51.398;7.128;2023-03-30T18:17:57;12.50;99.90
2945;DHT22;1482;51.398;7.128;2023-03-30T18:22:59;12.40;99.90
2945;DHT22;1482;51.398;7.128;2023-03-30T18:25:25;12.40;99.90
2945;DHT22;1482;51.398;7.128;2023-03-30T18:27:51;12.50;99.90
2945;DHT22;1482;51.398;7.128;2023-03-30T18:30:27;12.40;99.90
2945;DHT22;1482;51.398;7.128;2023-03-30T18:32:54;12.50;99.90
2945;DHT22;1482;51.398;7.128;2023-03-30T18:35:21;12.60;99.90
2945;DHT22;1482;51.398;7.128;2023-03-30T18:37:47;12.50;99.90
2945;DHT22;1482;51.398;7.128;2023-03-30T18:40:16;12.50;99.90
2945;DHT22;1482;51.398;7.128;2023-03-30T18:42:42;12.50;99.90
2945;DHT22;1482;51.398;7.128;2023-03-30T18:45:16;12.50;99.90
2945;DHT22;1482;51.398;7.128;2023-03-30T18:47:42;12.50;99.90
2945;DHT22;1482;51.398;7.128;2023-03-30T18:50:22;12.30;99.90
2945;DHT22;1482;51.398;7.128;2023-03-30T18:52:48;12.30;99.90
2945;DHT22;1482;51.398;7.128;2023-03-30T18:55:14;12.20;99.90
2945;DHT22;1482;51.398;7.128;2023-03-30T18:57:41;12.30;99.90
2945;DHT22;1482;51.398;7.128;2023-03-30T19:00:15;12.10;99.90